Time;durP1;ratioP1;P1;durP2;ratioP2;P2;SDS_P1;SDS_P2;PMS_P1;PMS_P2;Temp;Humidity;BMP_temperature;BMP_pressure;BME280_temperature;BME280_humidity;BME280_pressure;Samples;Min_cycle;Max_cycle;Signal;HPM_P1;HPM_P2
2022/04/17 00:01:06;;;;;;;;;;;21.50;38.20;;;;;;491173;242;1048;-40
2022/04/17 00:03:08;;;;;;;;;;;21.50;38.20;;;;;;490895;242;1171;-40
2022/04/17 00:05:09;;;;;;;;;;;21.50;38.10;;;;;;491187;242;1036;-40
2022/04/17 00:07:10;;;;;;;;;;;21.50;38.10;;;;;;491182;242;2126;-40
2022/04/17 00:09:12;;;;;;;;;;;21.60;38.10;;;;;;491236;242;1230;-40
2022/04/17 00:11:13;;;;;;;;;;;21.50;38.10;;;;;;490715;242;1402;-40
2022/04/17 00:13:15;;;;;;;;;;;21.50;38.10;;;;;;490911;242;1051;-40
2022/04/17 00:15:16;;;;;;;;;;;21.50;38.10;;;;;;490876;242;1063;-39
2022/04/17 00:17:17;;;;;;;;;;;21.50;38.10;;;;;;491069;242;1291;-40
2022/04/17 00:19:19;;;;;;;;;;;21.50;38.10;;;;;;491186;242;1036;-40
2022/04/17 00:21:22;;;;;;;;;;;21.50;38.10;;;;;;490743;242;997;-40
2022/04/17 00:23:22;;;;;;;;;;;21.50;38.10;;;;;;491124;242;2478;-39
2022/04/17 00:25:23;;;;;;;;;;;21.50;38.10;;;;;;491154;242;2105;-40
2022/04/17 00:27:25;;;;;;;;;;;21.60;38.10;;;;;;490747;242;1060;-40
2022/04/17 00:29:26;;;;;;;;;;;21.50;38.10;;;;;;490770;242;1059;-40
2022/04/17 00:31:27;;;;;;;;;;;21.50;38.10;;;;;;490734;242;1064;-40
2022/04/17 00:33:28;;;;;;;;;;;21.50;38.10;;;;;;490702;242;1290;-40
2022/04/17 00:35:30;;;;;;;;;;;21.50;38.10;;;;;;490723;242;1037;-40
2022/04/17 00:37:31;;;;;;;;;;;21.50;38.10;;;;;;491158;242;981;-40
2022/04/17 00:39:32;;;;;;;;;;;21.60;38.10;;;;;;491228;242;1067;-40
2022/04/17 00:41:34;;;;;;;;;;;21.50;38.00;;;;;;491084;242;1055;-40
2022/04/17 00:43:36;;;;;;;;;;;21.50;38.00;;;;;;490764;242;1052;-40
2022/04/17 00:45:36;;;;;;;;;;;21.50;38.00;;;;;;491174;242;2590;-39
2022/04/17 00:47:38;;;;;;;;;;;21.50;38.00;;;;;;490715;242;1167;-40
2022/04/17 00:49:39;;;;;;;;;;;21.60;38.00;;;;;;491207;242;1081;-39
2022/04/17 00:51:40;;;;;;;;;;;21.50;38.10;;;;;;490687;242;1107;-40
2022/04/17 00:53:42;;;;;;;;;;;21.50;38.10;;;;;;491198;242;1081;-39
2022/04/17 00:55:43;;;;;;;;;;;21.50;38.10;;;;;;491191;242;1362;-40
2022/04/17 00:57:44;;;;;;;;;;;21.60;38.10;;;;;;491227;242;1010;-40
2022/04/17 00:59:45;;;;;;;;;;;21.50;38.10;;;;;;491210;242;1053;-40
2022/04/17 01:01:47;;;;;;;;;;;21.50;38.10;;;;;;491199;242;1082;-39
2022/04/17 01:03:48;;;;;;;;;;;21.50;38.00;;;;;;490913;242;1190;-40
2022/04/17 01:05:49;;;;;;;;;;;21.50;38.20;;;;;;491185;242;2110;-40
2022/04/17 01:07:51;;;;;;;;;;;21.50;38.20;;;;;;491183;242;1050;-40
2022/04/17 01:09:52;;;;;;;;;;;21.50;38.10;;;;;;490751;242;1057;-40
2022/04/17 01:11:53;;;;;;;;;;;21.50;38.10;;;;;;490725;242;1052;-40
2022/04/17 01:13:55;;;;;;;;;;;21.50;38.10;;;;;;490852;242;1070;-40
2022/04/17 01:15:58;;;;;;;;;;;21.50;38.10;;;;;;491198;242;1061;-40
2022/04/17 01:17:58;;;;;;;;;;;21.50;38.10;;;;;;490947;242;2230;-40
2022/04/17 01:19:59;;;;;;;;;;;21.50;38.10;;;;;;490774;242;2203;-40
2022/04/17 01:22:00;;;;;;;;;;;21.50;38.10;;;;;;490663;242;1357;-40
2022/04/17 01:28:40;;;;;;;;;;;21.50;38.10;;;;;;490756;242;1063;-40
2022/04/17 01:30:42;;;;;;;;;;;21.50;38.00;;;;;;491066;242;1002;-39
2022/04/17 01:32:43;;;;;;;;;;;21.50;38.00;;;;;;491158;242;1182;-39
2022/04/17 01:34:44;;;;;;;;;;;21.60;38.00;;;;;;490810;242;1195;-40
2022/04/17 01:36:46;;;;;;;;;;;21.50;37.90;;;;;;490693;242;1090;-40
2022/04/17 01:38:47;;;;;;;;;;;21.50;38.00;;;;;;491196;242;1045;-40
2022/04/17 01:40:48;;;;;;;;;;;21.50;38.00;;;;;;491175;242;1229;-40
2022/04/17 01:42:50;;;;;;;;;;;21.50;38.00;;;;;;491140;242;1103;-40
2022/04/17 01:44:51;;;;;;;;;;;21.50;38.00;;;;;;491198;242;1258;-40
2022/04/17 01:46:52;;;;;;;;;;;21.50;38.10;;;;;;490935;242;2185;-40
2022/04/17 01:48:54;;;;;;;;;;;21.50;38.10;;;;;;486184;242;1225;-40
2022/04/17 01:50:55;;;;;;;;;;;21.50;38.10;;;;;;483471;246;1073;-40
2022/04/17 01:52:58;;;;;;;;;;;21.50;38.10;;;;;;487083;243;1045;-40
2022/04/17 01:54:57;;;;;;;;;;;21.50;38.10;;;;;;490633;243;2405;-40
2022/04/17 01:56:59;;;;;;;;;;;21.50;38.00;;;;;;490936;242;1028;-40
2022/04/17 01:59:00;;;;;;;;;;;21.50;38.00;;;;;;490973;242;1476;-39
2022/04/17 02:01:01;;;;;;;;;;;21.50;38.00;;;;;;491137;242;1129;-40
2022/04/17 02:03:03;;;;;;;;;;;21.50;38.00;;;;;;490704;242;983;-40
2022/04/17 02:05:04;;;;;;;;;;;21.50;38.00;;;;;;490751;242;1178;-39
2022/04/17 02:07:05;;;;;;;;;;;21.60;38.00;;;;;;491096;242;2126;-40
2022/04/17 02:09:08;;;;;;;;;;;21.50;38.00;;;;;;491192;242;1345;-39
2022/04/17 02:11:09;;;;;;;;;;;21.50;38.00;;;;;;490692;242;1349;-39
2022/04/17 02:13:10;;;;;;;;;;;21.60;38.00;;;;;;491164;242;1130;-39
2022/04/17 02:15:14;;;;;;;;;;;21.50;38.00;;;;;;490748;242;1064;-40
2022/04/17 02:17:13;;;;;;;;;;;21.50;38.00;;;;;;490567;243;2477;-40
2022/04/17 02:19:14;;;;;;;;;;;21.50;38.00;;;;;;490610;242;1318;-40
2022/04/17 02:21:16;;;;;;;;;;;21.50;38.00;;;;;;490190;242;1087;-40
2022/04/17 02:23:17;;;;;;;;;;;21.50;38.00;;;;;;491125;242;1177;-39
2022/04/17 02:25:19;;;;;;;;;;;21.50;38.00;;;;;;490719;242;1098;-40
2022/04/17 02:27:20;;;;;;;;;;;21.50;38.00;;;;;;491116;242;2117;-40
2022/04/17 02:29:21;;;;;;;;;;;21.40;38.00;;;;;;491188;242;1015;-39
2022/04/17 02:31:23;;;;;;;;;;;21.50;38.00;;;;;;491164;242;1073;-40
2022/04/17 02:33:24;;;;;;;;;;;21.50;38.00;;;;;;490956;242;1194;-40
2022/04/17 02:35:26;;;;;;;;;;;21.50;38.00;;;;;;490726;242;1196;-40
2022/04/17 02:37:28;;;;;;;;;;;21.50;38.00;;;;;;491142;242;1045;-40
2022/04/17 02:39:29;;;;;;;;;;;21.50;38.00;;;;;;491121;242;2249;-40
2022/04/17 02:41:30;;;;;;;;;;;21.50;38.00;;;;;;491109;243;2077;-39
2022/04/17 02:43:31;;;;;;;;;;;21.60;38.00;;;;;;491202;242;1038;-40
2022/04/17 02:45:32;;;;;;;;;;;21.50;37.90;;;;;;491187;242;1096;-40
2022/04/17 02:47:46;;;;;;;;;;;21.50;37.90;;;;;;491136;242;2185;-40
2022/04/17 02:49:47;;;;;;;;;;;21.60;37.90;;;;;;490932;242;2200;-40
2022/04/17 02:51:48;;;;;;;;;;;21.60;37.80;;;;;;490661;242;1050;-40
2022/04/17 02:53:50;;;;;;;;;;;21.50;37.80;;;;;;490724;242;1084;-40
2022/04/17 02:55:51;;;;;;;;;;;21.50;37.90;;;;;;491158;242;1127;-39
2022/04/17 02:57:54;;;;;;;;;;;21.50;38.00;;;;;;491196;242;1072;-40
2022/04/17 02:59:54;;;;;;;;;;;21.50;38.00;;;;;;491127;243;1963;-40
2022/04/17 03:06:33;;;;;;;;;;;21.50;37.90;;;;;;490640;243;2125;-40
2022/04/17 03:08:35;;;;;;;;;;;21.50;38.00;;;;;;491156;242;1045;-40
2022/04/17 03:10:36;;;;;;;;;;;21.50;37.90;;;;;;491194;242;1049;-40
2022/04/17 03:12:37;;;;;;;;;;;21.50;37.90;;;;;;491178;242;1002;-40
2022/04/17 03:14:39;;;;;;;;;;;21.50;37.90;;;;;;491185;242;1070;-39
2022/04/17 03:16:40;;;;;;;;;;;21.50;37.90;;;;;;491170;242;1022;-40
2022/04/17 03:18:41;;;;;;;;;;;21.50;37.90;;;;;;491181;242;1286;-40
2022/04/17 03:20:43;;;;;;;;;;;21.50;37.90;;;;;;490846;242;1200;-40
2022/04/17 03:22:44;;;;;;;;;;;21.50;37.80;;;;;;491127;242;1192;-40
2022/04/17 03:24:45;;;;;;;;;;;21.50;37.90;;;;;;491183;242;1248;-39
2022/04/17 03:26:46;;;;;;;;;;;21.50;37.90;;;;;;491134;242;2188;-40
2022/04/17 03:28:48;;;;;;;;;;;21.50;37.90;;;;;;491158;243;2238;-40
2022/04/17 03:30:49;;;;;;;;;;;21.50;37.90;;;;;;491186;242;1066;-40
2022/04/17 03:32:51;;;;;;;;;;;21.50;38.00;;;;;;490698;242;1261;-40
2022/04/17 03:34:52;;;;;;;;;;;21.50;38.00;;;;;;491115;242;1179;-40
2022/04/17 03:36:53;;;;;;;;;;;21.50;37.90;;;;;;491154;242;1127;-40
2022/04/17 03:38:55;;;;;;;;;;;21.60;37.90;;;;;;491199;242;1173;-40
2022/04/17 03:40:56;;;;;;;;;;;21.50;37.90;;;;;;491165;242;1269;-39
2022/04/17 03:42:58;;;;;;;;;;;21.50;37.80;;;;;;490932;242;961;-40
2022/04/17 03:44:58;;;;;;;;;;;21.50;37.90;;;;;;491182;242;1403;-40
2022/04/17 03:47:00;;;;;;;;;;;21.50;37.90;;;;;;490678;242;2207;-40
2022/04/17 03:49:01;;;;;;;;;;;21.50;37.90;;;;;;490776;242;1077;-40
2022/04/17 03:51:02;;;;;;;;;;;21.50;37.90;;;;;;483250;242;1447;-39
2022/04/17 03:53:04;;;;;;;;;;;21.50;37.90;;;;;;491116;242;1076;-40
2022/04/17 03:55:05;;;;;;;;;;;21.50;37.90;;;;;;491225;242;1035;-39
2022/04/17 03:57:06;;;;;;;;;;;21.50;37.90;;;;;;491066;242;1188;-40
2022/04/17 03:59:08;;;;;;;;;;;21.50;37.80;;;;;;491209;242;1099;-40
2022/04/17 04:01:09;;;;;;;;;;;21.50;37.80;;;;;;490714;242;1094;-40
2022/04/17 04:03:12;;;;;;;;;;;21.40;38.00;;;;;;491182;242;1170;-40
2022/04/17 04:05:12;;;;;;;;;;;21.50;38.00;;;;;;490644;243;2425;-39
2022/04/17 04:07:14;;;;;;;;;;;21.50;38.00;;;;;;491162;242;2122;-40
2022/04/17 04:09:14;;;;;;;;;;;21.50;38.00;;;;;;491204;242;1827;-39
2022/04/17 04:11:16;;;;;;;;;;;21.50;38.00;;;;;;491177;242;1166;-40
2022/04/17 04:13:17;;;;;;;;;;;21.50;38.00;;;;;;490767;242;1063;-39
2022/04/17 04:15:18;;;;;;;;;;;21.50;38.00;;;;;;491196;242;1051;-40
2022/04/17 04:17:20;;;;;;;;;;;21.50;37.90;;;;;;491170;242;1034;-40
2022/04/17 04:19:21;;;;;;;;;;;21.50;37.90;;;;;;491206;242;1228;-40
2022/04/17 04:21:22;;;;;;;;;;;21.50;37.90;;;;;;490862;242;1194;-39
2022/04/17 04:23:24;;;;;;;;;;;21.50;37.90;;;;;;491205;242;1013;-40
2022/04/17 04:25:25;;;;;;;;;;;21.50;37.90;;;;;;491186;242;1362;-40
2022/04/17 04:29:45;;;;;;;;;;;21.50;37.90;;;;;;491185;243;1087;-40
2022/04/17 04:31:47;;;;;;;;;;;21.40;37.80;;;;;;491153;242;1153;-40
2022/04/17 04:33:48;;;;;;;;;;;21.50;37.80;;;;;;490802;242;1057;-40
2022/04/17 04:35:50;;;;;;;;;;;21.50;37.80;;;;;;487910;242;1299;-40
2022/04/17 04:37:51;;;;;;;;;;;21.50;37.80;;;;;;485118;243;1103;-39
2022/04/17 04:39:52;;;;;;;;;;;21.50;37.80;;;;;;491218;242;964;-40
2022/04/17 04:41:53;;;;;;;;;;;21.50;37.80;;;;;;490908;242;1069;-40
2022/04/17 04:43:55;;;;;;;;;;;21.50;37.90;;;;;;491206;242;1073;-40
2022/04/17 04:46:09;;;;;;;;;;;21.50;37.80;;;;;;491174;242;1068;-40
2022/04/17 04:48:09;;;;;;;;;;;21.50;37.80;;;;;;490658;242;2159;-40
2022/04/17 04:50:11;;;;;;;;;;;21.50;37.80;;;;;;490748;242;958;-40
2022/04/17 04:52:12;;;;;;;;;;;21.50;37.80;;;;;;490722;242;1180;-40
2022/04/17 04:54:13;;;;;;;;;;;21.50;37.80;;;;;;491191;242;1226;-40
2022/04/17 04:56:15;;;;;;;;;;;21.60;37.80;;;;;;491183;242;1080;-40
2022/04/17 04:58:16;;;;;;;;;;;21.50;37.80;;;;;;491168;242;1180;-40
2022/04/17 05:00:18;;;;;;;;;;;21.50;37.80;;;;;;491193;242;1041;-40
2022/04/17 05:02:19;;;;;;;;;;;21.50;37.80;;;;;;491129;242;1079;-40
2022/04/17 05:04:20;;;;;;;;;;;21.50;37.80;;;;;;491195;242;1006;-40
2022/04/17 05:06:22;;;;;;;;;;;21.60;37.80;;;;;;491002;242;1179;-39
2022/04/17 05:08:23;;;;;;;;;;;21.60;37.80;;;;;;491171;242;2117;-40
2022/04/17 05:10:24;;;;;;;;;;;21.50;37.80;;;;;;491171;242;1065;-40
2022/04/17 05:12:27;;;;;;;;;;;21.50;37.80;;;;;;491133;242;1131;-40
2022/04/17 05:14:29;;;;;;;;;;;21.50;37.70;;;;;;491085;242;2395;-40
2022/04/17 05:16:28;;;;;;;;;;;21.50;37.80;;;;;;490554;243;2494;-40
2022/04/17 05:18:30;;;;;;;;;;;21.50;37.70;;;;;;491143;242;1115;-39
2022/04/17 05:20:33;;;;;;;;;;;21.50;37.80;;;;;;490716;242;1279;-40
2022/04/17 05:22:33;;;;;;;;;;;21.50;37.80;;;;;;490667;242;1550;-40
2022/04/17 05:24:34;;;;;;;;;;;21.50;37.80;;;;;;491026;242;1031;-40
2022/04/17 05:26:37;;;;;;;;;;;21.50;37.80;;;;;;490916;242;1097;-40
2022/04/17 05:28:37;;;;;;;;;;;21.50;37.80;;;;;;490670;242;2184;-40
2022/04/17 05:30:38;;;;;;;;;;;21.50;37.80;;;;;;491141;242;1033;-40
2022/04/17 05:32:40;;;;;;;;;;;21.50;37.80;;;;;;491168;242;1071;-40
2022/04/17 05:34:41;;;;;;;;;;;21.50;37.80;;;;;;491198;242;1073;-40
2022/04/17 05:36:43;;;;;;;;;;;21.50;37.80;;;;;;490990;242;1178;-39
2022/04/17 05:38:44;;;;;;;;;;;21.40;37.80;;;;;;491189;242;1086;-40
2022/04/17 05:40:46;;;;;;;;;;;21.40;37.80;;;;;;491178;242;1132;-40
2022/04/17 05:42:46;;;;;;;;;;;21.50;37.80;;;;;;491126;242;1189;-40
2022/04/17 05:44:48;;;;;;;;;;;21.50;37.80;;;;;;491195;242;1065;-40
2022/04/17 05:46:49;;;;;;;;;;;21.50;37.80;;;;;;490611;242;1186;-39
2022/04/17 05:48:50;;;;;;;;;;;21.50;37.80;;;;;;490646;242;2185;-40
2022/04/17 05:50:53;;;;;;;;;;;21.50;37.80;;;;;;490671;243;1071;-39
2022/04/17 05:52:53;;;;;;;;;;;21.50;37.80;;;;;;490666;242;2263;-40
2022/04/17 05:54:54;;;;;;;;;;;21.50;37.80;;;;;;491212;242;1094;-40
2022/04/17 05:56:56;;;;;;;;;;;21.50;37.70;;;;;;491146;242;1202;-40
2022/04/17 05:58:57;;;;;;;;;;;21.50;37.70;;;;;;491214;242;955;-40
2022/04/17 06:00:58;;;;;;;;;;;21.50;37.70;;;;;;491143;242;1024;-40
2022/04/17 06:03:01;;;;;;;;;;;21.50;37.80;;;;;;491166;242;1048;-40
2022/04/17 06:05:01;;;;;;;;;;;21.50;37.80;;;;;;490667;242;2418;-40
2022/04/17 06:07:02;;;;;;;;;;;21.50;37.70;;;;;;487496;242;1339;-40
2022/04/17 06:09:04;;;;;;;;;;;21.50;37.70;;;;;;489221;243;2123;-40
2022/04/17 06:11:05;;;;;;;;;;;21.50;37.70;;;;;;491156;242;1203;-40
2022/04/17 06:13:07;;;;;;;;;;;21.50;37.70;;;;;;491186;242;1029;-40
2022/04/17 06:15:08;;;;;;;;;;;21.50;37.70;;;;;;490722;242;993;-40
2022/04/17 06:17:10;;;;;;;;;;;21.50;37.70;;;;;;491132;242;1051;-39
2022/04/17 06:19:11;;;;;;;;;;;21.50;37.70;;;;;;491173;242;1025;-40
2022/04/17 06:21:12;;;;;;;;;;;21.50;37.60;;;;;;491032;242;1065;-40
2022/04/17 06:23:13;;;;;;;;;;;21.50;37.70;;;;;;490774;242;1124;-40
2022/04/17 06:25:15;;;;;;;;;;;21.50;37.70;;;;;;491013;242;1061;-40
2022/04/17 06:27:16;;;;;;;;;;;21.50;37.70;;;;;;491088;242;1178;-40
2022/04/17 06:29:17;;;;;;;;;;;21.50;37.60;;;;;;491177;242;2117;-40
2022/04/17 06:31:19;;;;;;;;;;;21.60;37.60;;;;;;491118;242;1086;-40
2022/04/17 06:33:20;;;;;;;;;;;21.50;37.70;;;;;;491161;242;1201;-40
2022/04/17 06:35:21;;;;;;;;;;;21.50;37.70;;;;;;491197;242;1089;-39
2022/04/17 06:37:22;;;;;;;;;;;21.50;37.70;;;;;;491023;242;1174;-40
2022/04/17 06:39:24;;;;;;;;;;;21.50;37.70;;;;;;490717;242;1051;-40
2022/04/17 06:41:25;;;;;;;;;;;21.50;37.70;;;;;;491119;242;1331;-40
2022/04/17 06:43:26;;;;;;;;;;;21.50;37.70;;;;;;491167;242;1022;-40
2022/04/17 06:45:28;;;;;;;;;;;21.50;37.70;;;;;;491182;242;1059;-40
2022/04/17 06:47:29;;;;;;;;;;;21.50;37.70;;;;;;491108;242;1156;-40
2022/04/17 06:49:30;;;;;;;;;;;21.50;37.60;;;;;;490679;242;2125;-40
2022/04/17 06:51:32;;;;;;;;;;;21.50;37.70;;;;;;490676;243;1050;-40
2022/04/17 06:53:33;;;;;;;;;;;21.50;37.60;;;;;;490848;242;1182;-39
2022/04/17 06:55:34;;;;;;;;;;;21.50;37.60;;;;;;491217;242;1214;-40
2022/04/17 06:57:36;;;;;;;;;;;21.50;37.50;;;;;;491143;242;1285;-40
2022/04/17 06:59:39;;;;;;;;;;;21.50;37.60;;;;;;491148;242;1054;-40
2022/04/17 07:01:38;;;;;;;;;;;21.50;37.60;;;;;;490581;243;2471;-40
2022/04/17 07:03:40;;;;;;;;;;;21.50;37.60;;;;;;491195;242;1098;-40
2022/04/17 07:05:41;;;;;;;;;;;21.50;37.60;;;;;;491188;242;1050;-39
2022/04/17 07:07:42;;;;;;;;;;;21.50;37.60;;;;;;490836;242;1286;-40
2022/04/17 07:09:44;;;;;;;;;;;21.50;37.60;;;;;;490456;242;1031;-40
2022/04/17 07:11:45;;;;;;;;;;;21.50;37.70;;;;;;491175;242;1074;-40
2022/04/17 07:13:47;;;;;;;;;;;21.50;37.70;;;;;;491208;242;1045;-39
2022/04/17 07:15:48;;;;;;;;;;;21.50;37.70;;;;;;491138;242;2065;-39
2022/04/17 07:17:49;;;;;;;;;;;21.50;37.70;;;;;;491168;242;1065;-40
2022/04/17 07:19:50;;;;;;;;;;;21.50;37.70;;;;;;491206;242;1216;-40
2022/04/17 07:21:51;;;;;;;;;;;21.50;37.60;;;;;;490796;242;980;-40
2022/04/17 07:23:53;;;;;;;;;;;21.50;37.70;;;;;;490875;242;1192;-40
2022/04/17 07:25:55;;;;;;;;;;;21.50;37.60;;;;;;490729;242;1000;-40
2022/04/17 07:27:55;;;;;;;;;;;21.50;37.60;;;;;;490668;243;2346;-40
2022/04/17 07:29:57;;;;;;;;;;;21.50;37.60;;;;;;490758;242;1019;-40
2022/04/17 07:31:58;;;;;;;;;;;21.50;37.70;;;;;;491142;242;1065;-40
2022/04/17 07:33:59;;;;;;;;;;;21.50;37.60;;;;;;491153;242;1054;-40
2022/04/17 07:36:02;;;;;;;;;;;21.50;37.60;;;;;;490712;242;1066;-40
2022/04/17 07:38:02;;;;;;;;;;;21.50;37.60;;;;;;490704;243;1969;-40
2022/04/17 07:40:04;;;;;;;;;;;21.50;37.60;;;;;;490988;242;1039;-40
2022/04/17 07:42:05;;;;;;;;;;;21.50;37.60;;;;;;491175;242;1161;-40
2022/04/17 07:44:06;;;;;;;;;;;21.40;37.70;;;;;;491192;242;1071;-39
2022/04/17 07:46:08;;;;;;;;;;;21.40;37.70;;;;;;491154;242;1067;-40
2022/04/17 07:48:09;;;;;;;;;;;21.50;37.60;;;;;;490762;242;2110;-40
2022/04/17 07:50:10;;;;;;;;;;;21.50;37.60;;;;;;491202;242;1040;-40
2022/04/17 07:52:12;;;;;;;;;;;21.50;37.50;;;;;;491005;242;1169;-39
2022/04/17 07:54:13;;;;;;;;;;;21.40;37.60;;;;;;490918;242;1215;-40
2022/04/17 07:56:14;;;;;;;;;;;21.50;37.60;;;;;;491153;242;1103;-40
2022/04/17 07:58:23;;;;;;;;;;;21.50;37.60;;;;;;490713;242;1078;-40
2022/04/17 08:00:19;;;;;;;;;;;21.50;37.50;;;;;;490212;243;2284;-40
2022/04/17 08:02:39;;;;;;;;;;;21.60;37.60;;;;;;490597;243;2307;-40
2022/04/17 08:04:30;;;;;;;;;;;21.50;37.60;;;;;;489948;243;2311;-40
2022/04/17 08:06:31;;;;;;;;;;;21.50;37.60;;;;;;490659;243;2382;-40
2022/04/17 08:08:32;;;;;;;;;;;21.50;37.60;;;;;;491023;242;2150;-40
2022/04/17 08:10:34;;;;;;;;;;;21.50;37.50;;;;;;490711;242;1195;-40
2022/04/17 08:12:35;;;;;;;;;;;21.50;37.50;;;;;;491152;242;1012;-40
2022/04/17 08:14:36;;;;;;;;;;;21.50;37.50;;;;;;491189;242;1033;-39
2022/04/17 08:16:37;;;;;;;;;;;21.50;37.50;;;;;;490995;242;1565;-39
2022/04/17 08:18:39;;;;;;;;;;;21.50;37.50;;;;;;491183;242;978;-40
2022/04/17 08:20:40;;;;;;;;;;;21.50;37.60;;;;;;491134;242;1129;-39
2022/04/17 08:22:41;;;;;;;;;;;21.50;37.60;;;;;;491049;242;1249;-40
2022/04/17 08:24:43;;;;;;;;;;;21.50;37.50;;;;;;490761;242;1316;-40
2022/04/17 08:26:44;;;;;;;;;;;21.50;37.50;;;;;;491075;242;1094;-40
2022/04/17 08:28:45;;;;;;;;;;;21.50;37.50;;;;;;490868;242;2122;-40
2022/04/17 08:30:47;;;;;;;;;;;21.50;37.50;;;;;;490891;242;1163;-40
2022/04/17 08:32:48;;;;;;;;;;;21.50;37.50;;;;;;490725;242;1211;-39
2022/04/17 08:34:49;;;;;;;;;;;21.50;37.50;;;;;;490727;242;1080;-40
2022/04/17 08:36:51;;;;;;;;;;;21.50;37.50;;;;;;491142;242;1069;-40
2022/04/17 08:38:52;;;;;;;;;;;21.50;37.50;;;;;;491067;242;1159;-39
2022/04/17 08:40:53;;;;;;;;;;;21.50;37.50;;;;;;490702;242;1067;-40
2022/04/17 08:42:55;;;;;;;;;;;21.50;37.50;;;;;;491193;243;1097;-40
2022/04/17 08:44:56;;;;;;;;;;;21.50;37.50;;;;;;491209;242;1018;-40
2022/04/17 08:46:57;;;;;;;;;;;21.50;37.60;;;;;;491159;242;1021;-40
2022/04/17 08:48:58;;;;;;;;;;;21.50;37.50;;;;;;491155;242;2117;-40
2022/04/17 08:51:02;;;;;;;;;;;21.50;37.50;;;;;;491146;242;1209;-39
2022/04/17 08:53:01;;;;;;;;;;;21.50;37.60;;;;;;491015;242;2316;-40
2022/04/17 08:55:03;;;;;;;;;;;21.50;37.60;;;;;;490870;242;1219;-40
2022/04/17 08:57:04;;;;;;;;;;;21.40;37.50;;;;;;491125;242;1211;-40
2022/04/17 08:59:05;;;;;;;;;;;21.40;37.50;;;;;;490689;242;1344;-40
2022/04/17 09:01:06;;;;;;;;;;;21.50;37.50;;;;;;491103;242;1034;-40
2022/04/17 09:03:08;;;;;;;;;;;21.50;37.50;;;;;;491192;242;1015;-39
2022/04/17 09:05:09;;;;;;;;;;;21.50;37.50;;;;;;490724;242;1138;-40
2022/04/17 09:07:10;;;;;;;;;;;21.50;37.50;;;;;;490682;242;1053;-40
2022/04/17 09:09:12;;;;;;;;;;;21.50;37.50;;;;;;491007;242;2133;-39
2022/04/17 09:11:13;;;;;;;;;;;21.50;37.50;;;;;;491173;242;1077;-40
2022/04/17 09:13:15;;;;;;;;;;;21.50;37.50;;;;;;490746;242;958;-40
2022/04/17 09:15:16;;;;;;;;;;;21.50;37.40;;;;;;491198;242;1061;-40
2022/04/17 09:17:18;;;;;;;;;;;21.50;37.40;;;;;;491158;242;968;-39
2022/04/17 09:19:19;;;;;;;;;;;21.50;37.50;;;;;;490677;243;2474;-40
2022/04/17 09:21:20;;;;;;;;;;;21.40;37.50;;;;;;491113;242;1231;-40
2022/04/17 09:23:21;;;;;;;;;;;21.40;37.50;;;;;;490723;242;970;-40
2022/04/17 09:25:23;;;;;;;;;;;21.50;37.50;;;;;;490886;242;1191;-40
2022/04/17 09:27:24;;;;;;;;;;;21.50;37.50;;;;;;491205;242;1064;-40
2022/04/17 09:29:26;;;;;;;;;;;21.50;37.50;;;;;;491191;242;2185;-40
2022/04/17 09:31:27;;;;;;;;;;;21.50;37.50;;;;;;491176;242;1071;-39
2022/04/17 09:33:28;;;;;;;;;;;21.50;37.60;;;;;;491185;242;1059;-40
2022/04/17 09:35:30;;;;;;;;;;;21.50;37.50;;;;;;490913;242;985;-40
2022/04/17 09:37:35;;;;;;;;;;;21.50;37.50;;;;;;491161;242;1050;-40
2022/04/17 09:39:33;;;;;;;;;;;21.50;37.50;;;;;;490470;243;2361;-40
2022/04/17 09:41:34;;;;;;;;;;;21.50;37.50;;;;;;490927;242;1059;-39
2022/04/17 09:43:36;;;;;;;;;;;21.40;37.40;;;;;;491129;242;1204;-40
2022/04/17 09:45:37;;;;;;;;;;;21.40;37.50;;;;;;491017;242;1172;-40
2022/04/17 09:47:38;;;;;;;;;;;21.40;37.50;;;;;;490782;242;1178;-39
2022/04/17 09:49:39;;;;;;;;;;;21.40;37.50;;;;;;491175;242;2192;-40
2022/04/17 09:51:41;;;;;;;;;;;21.50;37.50;;;;;;490680;242;1062;-40
2022/04/17 09:53:42;;;;;;;;;;;21.50;37.50;;;;;;490979;242;1051;-40
2022/04/17 09:55:44;;;;;;;;;;;21.50;37.40;;;;;;490834;242;1197;-40
2022/04/17 09:57:45;;;;;;;;;;;21.50;37.40;;;;;;491161;242;975;-40
2022/04/17 09:59:46;;;;;;;;;;;21.50;37.40;;;;;;490715;242;1072;-40
2022/04/17 10:01:49;;;;;;;;;;;21.50;37.40;;;;;;491145;242;1032;-40
2022/04/17 10:03:49;;;;;;;;;;;21.50;37.40;;;;;;490816;242;2179;-39
2022/04/17 10:05:50;;;;;;;;;;;21.50;37.40;;;;;;491094;242;1498;-40
2022/04/17 10:07:51;;;;;;;;;;;21.40;37.40;;;;;;491175;242;951;-40
2022/04/17 10:09:53;;;;;;;;;;;21.50;37.40;;;;;;488458;242;2188;-40
2022/04/17 10:11:59;;;;;;;;;;;21.50;37.40;;;;;;487476;243;1035;-40
2022/04/17 10:13:55;;;;;;;;;;;21.50;37.40;;;;;;489490;243;2213;-40
2022/04/17 10:15:57;;;;;;;;;;;21.50;37.50;;;;;;490896;242;1028;-39
2022/04/17 10:17:58;;;;;;;;;;;21.40;37.40;;;;;;490662;242;1064;-40
2022/04/17 10:19:59;;;;;;;;;;;21.40;37.40;;;;;;491160;242;1070;-40
2022/04/17 10:22:01;;;;;;;;;;;21.50;37.50;;;;;;491056;242;993;-40
2022/04/17 10:24:02;;;;;;;;;;;21.50;37.50;;;;;;491152;242;1081;-40
2022/04/17 10:26:03;;;;;;;;;;;21.50;37.40;;;;;;490817;242;1207;-40
2022/04/17 10:28:05;;;;;;;;;;;21.50;37.40;;;;;;491154;242;1268;-40
2022/04/17 10:30:06;;;;;;;;;;;21.40;37.40;;;;;;491154;242;2180;-40
2022/04/17 10:32:08;;;;;;;;;;;21.50;37.40;;;;;;490625;242;1076;-40
2022/04/17 10:34:09;;;;;;;;;;;21.50;37.40;;;;;;491153;243;1709;-40
2022/04/17 10:36:10;;;;;;;;;;;21.50;37.40;;;;;;491115;242;1345;-40
2022/04/17 10:38:11;;;;;;;;;;;21.40;37.50;;;;;;491177;242;1109;-40
2022/04/17 10:40:13;;;;;;;;;;;21.40;37.50;;;;;;490731;242;1211;-40
2022/04/17 10:42:14;;;;;;;;;;;21.50;37.50;;;;;;490792;242;1086;-39
2022/04/17 10:44:17;;;;;;;;;;;21.40;37.40;;;;;;490702;242;1010;-40
2022/04/17 10:46:19;;;;;;;;;;;21.50;37.50;;;;;;490660;242;1125;-40
2022/04/17 10:48:20;;;;;;;;;;;21.50;37.40;;;;;;491128;242;1101;-40
2022/04/17 10:50:22;;;;;;;;;;;21.50;37.40;;;;;;491183;242;2114;-40
2022/04/17 10:52:23;;;;;;;;;;;21.40;37.40;;;;;;491146;242;999;-40
2022/04/17 10:54:24;;;;;;;;;;;21.40;37.40;;;;;;491165;242;1189;-39
2022/04/17 10:56:26;;;;;;;;;;;21.40;37.40;;;;;;490814;242;1203;-40
2022/04/17 10:58:27;;;;;;;;;;;21.50;37.40;;;;;;490731;242;1344;-40
2022/04/17 11:00:28;;;;;;;;;;;21.50;37.40;;;;;;491164;242;1035;-40
2022/04/17 11:02:30;;;;;;;;;;;21.40;37.40;;;;;;491112;242;970;-40
2022/04/17 11:04:31;;;;;;;;;;;21.40;37.30;;;;;;491169;242;1039;-40
2022/04/17 11:06:32;;;;;;;;;;;21.50;37.30;;;;;;490664;242;1085;-40
2022/04/17 11:08:34;;;;;;;;;;;21.50;37.30;;;;;;490771;242;1045;-40
2022/04/17 11:10:35;;;;;;;;;;;21.50;37.30;;;;;;490683;242;2133;-40
2022/04/17 11:12:37;;;;;;;;;;;21.40;37.30;;;;;;490883;243;2130;-39
2022/04/17 11:14:39;;;;;;;;;;;21.50;37.40;;;;;;491089;242;2335;-40
2022/04/17 11:16:40;;;;;;;;;;;21.40;37.30;;;;;;491147;242;1664;-40
2022/04/17 11:18:42;;;;;;;;;;;21.40;37.30;;;;;;491149;242;1083;-40
2022/04/17 11:20:43;;;;;;;;;;;21.40;37.40;;;;;;491172;242;1033;-40
2022/04/17 11:22:45;;;;;;;;;;;21.40;37.30;;;;;;490925;242;1061;-40
2022/04/17 11:24:46;;;;;;;;;;;21.40;37.30;;;;;;490921;242;1067;-40
2022/04/17 11:26:47;;;;;;;;;;;21.40;37.30;;;;;;490728;242;1273;-40
2022/04/17 11:28:48;;;;;;;;;;;21.40;37.30;;;;;;491191;242;1007;-39
2022/04/17 11:30:50;;;;;;;;;;;21.50;37.30;;;;;;491123;242;2105;-39
2022/04/17 11:32:51;;;;;;;;;;;21.50;37.30;;;;;;491150;242;1155;-39
2022/04/17 11:34:53;;;;;;;;;;;21.50;37.40;;;;;;490724;242;1079;-40
2022/04/17 11:36:54;;;;;;;;;;;21.50;37.30;;;;;;490683;242;1056;-40
2022/04/17 11:38:55;;;;;;;;;;;21.40;37.30;;;;;;491158;242;1126;-40
2022/04/17 11:40:57;;;;;;;;;;;21.40;37.30;;;;;;490779;242;1197;-40
2022/04/17 11:42:58;;;;;;;;;;;21.50;37.30;;;;;;491163;242;1071;-39
2022/04/17 11:44:59;;;;;;;;;;;21.40;37.30;;;;;;490711;242;1052;-40
2022/04/17 11:47:01;;;;;;;;;;;21.50;37.30;;;;;;490847;242;1066;-40
2022/04/17 11:49:02;;;;;;;;;;;21.50;37.30;;;;;;490998;242;1066;-40
2022/04/17 11:51:04;;;;;;;;;;;21.50;37.30;;;;;;491174;242;2114;-40
2022/04/17 11:53:05;;;;;;;;;;;21.50;37.30;;;;;;491134;242;1962;-40
2022/04/17 11:55:06;;;;;;;;;;;21.50;37.20;;;;;;491197;242;1061;-40
2022/04/17 11:57:07;;;;;;;;;;;21.50;37.30;;;;;;490882;242;1166;-40
2022/04/17 11:59:09;;;;;;;;;;;21.40;37.30;;;;;;491196;242;1107;-40
2022/04/17 12:01:10;;;;;;;;;;;21.50;37.40;;;;;;490726;242;1067;-40
2022/04/17 12:03:11;;;;;;;;;;;21.40;37.30;;;;;;491026;242;1056;-40
2022/04/17 12:05:13;;;;;;;;;;;21.50;37.30;;;;;;490715;242;1036;-40
2022/04/17 12:07:14;;;;;;;;;;;21.40;37.30;;;;;;491086;242;1181;-40
2022/04/17 12:09:16;;;;;;;;;;;21.40;37.30;;;;;;491150;242;1126;-40